createdAt,value
2023-02-09T00:01:23.287Z,-4.40
2023-02-09T00:03:57.205Z,-4.40
2023-02-09T00:06:30.601Z,-4.50
2023-02-09T00:09:03.976Z,-4.50
2023-02-09T00:11:53.309Z,-4.50
2023-02-09T00:14:25.171Z,-4.50
2023-02-09T00:16:57.261Z,-4.50
2023-02-09T00:19:30.750Z,-4.50
2023-02-09T00:22:02.770Z,-4.50
2023-02-09T00:24:34.812Z,-4.60
2023-02-09T00:27:09.407Z,-4.60
2023-02-09T00:29:42.445Z,-4.60
2023-02-09T00:32:14.167Z,-4.60
2023-02-09T00:34:46.501Z,-4.60
2023-02-09T00:37:18.026Z,-4.60
2023-02-09T00:39:50.242Z,-4.70
2023-02-09T00:42:22.159Z,-4.70
2023-02-09T00:44:53.829Z,-4.70
2023-02-09T00:47:25.658Z,-4.70
2023-02-09T00:49:57.755Z,-4.70
2023-02-09T00:52:29.633Z,-4.70
2023-02-09T00:55:01.233Z,-4.70
2023-02-09T00:57:33.659Z,-4.80
2023-02-09T01:00:05.400Z,-4.80
2023-02-09T01:02:37.699Z,-4.80
2023-02-09T01:05:11.414Z,-4.80
2023-02-09T01:07:43.005Z,-4.70
2023-02-09T01:10:14.928Z,-4.80
2023-02-09T01:12:48.057Z,-4.80
2023-02-09T01:15:20.049Z,-4.80
2023-02-09T01:17:52.260Z,-4.80
2023-02-09T01:20:24.089Z,-4.80
2023-02-09T01:22:56.497Z,-4.80
2023-02-09T01:25:28.282Z,-4.80
2023-02-09T01:27:59.922Z,-4.80
2023-02-09T01:30:31.702Z,-4.80
2023-02-09T01:33:03.491Z,-4.80
2023-02-09T01:35:35.407Z,-4.80
2023-02-09T01:38:06.993Z,-4.80
2023-02-09T01:40:38.583Z,-4.90
2023-02-09T01:43:12.965Z,-4.90
2023-02-09T01:45:50.107Z,-5.00
2023-02-09T01:48:24.069Z,-5.10
2023-02-09T01:50:59.238Z,-5.10
2023-02-09T01:53:31.195Z,-5.10
2023-02-09T01:56:05.897Z,-5.20
2023-02-09T01:58:38.178Z,-5.20
2023-02-09T02:01:10.294Z,-5.20
2023-02-09T02:03:42.005Z,-5.20
2023-02-09T02:06:16.126Z,-5.20
2023-02-09T02:08:50.955Z,-5.20
2023-02-09T02:11:26.978Z,-5.10
2023-02-09T02:13:58.908Z,-5.10
2023-02-09T02:16:42.847Z,-5.10
2023-02-09T02:19:29.434Z,-5.20
2023-02-09T02:22:37.494Z,-5.20
2023-02-09T02:25:25.387Z,-5.10
2023-02-09T02:28:04.504Z,-5.20
2023-02-09T02:30:47.267Z,-5.20
2023-02-09T02:33:26.618Z,-5.30
2023-02-09T02:36:02.301Z,-5.30
2023-02-09T02:38:40.209Z,-5.40
2023-02-09T02:41:16.024Z,-5.40
2023-02-09T02:43:53.364Z,-5.40
2023-02-09T02:46:29.500Z,-5.40
2023-02-09T02:49:03.949Z,-5.40
2023-02-09T02:51:39.151Z,-5.50
2023-02-09T02:54:13.762Z,-5.50
2023-02-09T02:56:49.726Z,-5.50
2023-02-09T02:59:24.232Z,-5.50
2023-02-09T03:02:00.673Z,-5.50
2023-02-09T03:04:34.375Z,-5.50
2023-02-09T03:07:08.283Z,-5.50
2023-02-09T03:09:48.620Z,-5.60
2023-02-09T03:12:25.022Z,-5.60
2023-02-09T03:15:07.005Z,-5.60
2023-02-09T03:17:42.400Z,-5.60
2023-02-09T03:20:17.248Z,-5.60
2023-02-09T03:22:51.633Z,-5.60
2023-02-09T03:25:26.597Z,-5.60
2023-02-09T03:28:03.309Z,-5.60
2023-02-09T03:30:37.663Z,-5.60
2023-02-09T03:33:10.820Z,-5.60
2023-02-09T03:35:43.733Z,-5.60
2023-02-09T03:38:15.471Z,-5.60
2023-02-09T03:40:48.270Z,-5.50
2023-02-09T03:43:19.951Z,-5.60
2023-02-09T03:45:52.101Z,-5.60
2023-02-09T03:48:24.377Z,-5.70
2023-02-09T03:50:56.813Z,-5.80
2023-02-09T03:53:29.184Z,-5.70
2023-02-09T03:56:00.751Z,-5.70
2023-02-09T03:58:32.961Z,-5.70
2023-02-09T04:01:07.736Z,-5.60
2023-02-09T04:03:41.850Z,-5.60
2023-02-09T04:06:13.350Z,-5.60
2023-02-09T04:08:45.232Z,-5.60
2023-02-09T04:11:17.196Z,-5.70
2023-02-09T04:13:48.720Z,-5.70
2023-02-09T04:16:21.200Z,-5.70
2023-02-09T04:18:53.725Z,-5.70
2023-02-09T04:21:25.413Z,-5.80
2023-02-09T04:23:58.222Z,-5.70
2023-02-09T04:26:30.042Z,-5.80
2023-02-09T04:29:01.705Z,-5.80
2023-02-09T04:31:35.718Z,-5.80
2023-02-09T04:34:08.332Z,-5.80
2023-02-09T04:36:42.879Z,-5.80
2023-02-09T04:39:14.457Z,-5.80
2023-02-09T04:41:48.211Z,-5.80
2023-02-09T04:44:20.293Z,-5.70
2023-02-09T04:46:52.571Z,-5.70
2023-02-09T04:49:24.827Z,-5.70
2023-02-09T04:51:56.478Z,-5.70
2023-02-09T04:54:28.515Z,-5.70
2023-02-09T04:57:19.043Z,-5.70
2023-02-09T04:59:50.512Z,-5.70
2023-02-09T05:02:22.269Z,-5.70
2023-02-09T05:04:56.107Z,-5.70
2023-02-09T05:07:29.760Z,-5.70
2023-02-09T05:10:01.372Z,-5.60
2023-02-09T05:12:36.214Z,-5.70
2023-02-09T05:15:09.020Z,-5.70
2023-02-09T05:17:40.994Z,-5.80
2023-02-09T05:20:13.876Z,-5.90
2023-02-09T05:22:46.118Z,-5.90
2023-02-09T05:25:18.161Z,-5.90
2023-02-09T05:27:50.378Z,-5.90
2023-02-09T05:30:22.422Z,-5.80
2023-02-09T05:32:54.300Z,-5.80
2023-02-09T05:35:26.909Z,-5.70
2023-02-09T05:37:58.574Z,-5.70
2023-02-09T05:40:31.509Z,-5.70
2023-02-09T05:43:06.327Z,-5.70
2023-02-09T05:45:38.163Z,-5.80
2023-02-09T05:48:09.776Z,-5.80
2023-02-09T05:50:41.307Z,-5.80
2023-02-09T05:53:14.434Z,-5.80
2023-02-09T05:55:46.874Z,-5.80
2023-02-09T05:58:22.137Z,-5.80
2023-02-09T06:00:53.891Z,-5.80
2023-02-09T06:03:27.767Z,-5.80
2023-02-09T06:05:59.320Z,-5.80
2023-02-09T06:08:31.058Z,-5.80
2023-02-09T06:11:06.054Z,-5.80
2023-02-09T06:13:37.642Z,-5.80
2023-02-09T06:16:11.663Z,-5.90
2023-02-09T06:18:43.593Z,-5.90
2023-02-09T06:21:18.296Z,-6.00
2023-02-09T06:23:49.838Z,-6.00
2023-02-09T06:26:22.364Z,-6.00
2023-02-09T06:28:55.927Z,-6.00
2023-02-09T06:31:27.800Z,-5.90
2023-02-09T06:33:59.938Z,-5.90
2023-02-09T06:36:32.114Z,-5.90
2023-02-09T06:39:05.138Z,-5.90
2023-02-09T06:41:36.857Z,-5.90
2023-02-09T06:44:09.139Z,-5.80
2023-02-09T06:46:41.124Z,-5.80
2023-02-09T06:49:13.876Z,-5.80
2023-02-09T06:51:46.243Z,-5.80
2023-02-09T06:54:18.001Z,-5.80
2023-02-09T06:56:51.081Z,-5.70
2023-02-09T06:59:22.784Z,-5.70
2023-02-09T07:01:55.696Z,-5.70
2023-02-09T07:04:28.181Z,-5.60
2023-02-09T07:06:59.924Z,-5.60
2023-02-09T07:09:31.621Z,-5.60
2023-02-09T07:12:03.322Z,-5.50
2023-02-09T07:14:35.030Z,-5.50
2023-02-09T07:17:06.763Z,-5.50
2023-02-09T07:19:39.037Z,-5.50
2023-02-09T07:22:11.648Z,-5.30
2023-02-09T07:24:43.747Z,-5.30
2023-02-09T07:27:16.730Z,-5.20
2023-02-09T07:29:49.407Z,-5.20
2023-02-09T07:32:23.961Z,-5.10
2023-02-09T07:34:58.321Z,-5.00
2023-02-09T07:37:31.638Z,-4.90
2023-02-09T07:40:08.585Z,-4.80
2023-02-09T07:42:54.846Z,-4.60
2023-02-09T07:45:26.446Z,-4.40
2023-02-09T07:47:59.993Z,-4.20
2023-02-09T07:50:31.862Z,-4.00
2023-02-09T07:53:05.918Z,-3.80
2023-02-09T07:55:37.535Z,-3.70
2023-02-09T07:58:12.129Z,-3.60
2023-02-09T08:04:42.154Z,-3.40
2023-02-09T08:07:17.893Z,-3.30
2023-02-09T08:09:51.446Z,-3.20
2023-02-09T08:12:27.455Z,-3.20
2023-02-09T08:15:00.484Z,-3.00
2023-02-09T08:17:32.132Z,-3.00
2023-02-09T08:20:06.437Z,-2.90
2023-02-09T08:22:41.302Z,-2.70
2023-02-09T08:25:15.109Z,-2.60
2023-02-09T08:27:48.251Z,-2.50
2023-02-09T08:30:20.600Z,-2.40
2023-02-09T08:32:52.190Z,-2.20
2023-02-09T08:35:23.665Z,-2.10
2023-02-09T08:37:55.772Z,-2.00
2023-02-09T08:40:27.494Z,-1.90
2023-02-09T08:42:59.435Z,-1.80
2023-02-09T08:45:31.457Z,-1.70
2023-02-09T08:48:03.199Z,-1.70
2023-02-09T08:50:38.760Z,-1.60
2023-02-09T08:53:10.218Z,-1.50
2023-02-09T08:55:41.677Z,-1.40
2023-02-09T08:58:13.743Z,-1.30
2023-02-09T09:00:45.418Z,-1.20
2023-02-09T09:03:17.624Z,-1.10
2023-02-09T09:05:53.008Z,-1.10
2023-02-09T09:08:24.458Z,-1.00
2023-02-09T09:10:56.794Z,-0.90
2023-02-09T09:13:28.610Z,-0.80
2023-02-09T09:16:05.080Z,-0.70
2023-02-09T09:18:36.021Z,-0.60
2023-02-09T09:21:07.994Z,-0.50
2023-02-09T09:23:40.075Z,-0.40
2023-02-09T09:26:12.448Z,-0.20
2023-02-09T09:28:51.010Z,-0.10
2023-02-09T09:31:22.602Z,0.00
2023-02-09T09:33:54.544Z,0.10
2023-02-09T09:36:33.711Z,0.20
2023-02-09T09:39:18.698Z,0.20
2023-02-09T09:41:52.903Z,0.10
2023-02-09T09:44:29.875Z,0.10
2023-02-09T09:47:04.742Z,0.20
2023-02-09T09:49:40.085Z,0.20
2023-02-09T09:52:15.407Z,0.30
2023-02-09T09:54:47.317Z,0.30
2023-02-09T09:57:21.710Z,0.30
2023-02-09T09:59:54.273Z,0.30
2023-02-09T10:02:29.197Z,0.40
2023-02-09T10:07:44.075Z,0.50
2023-02-09T10:10:27.634Z,0.60
2023-02-09T10:13:01.029Z,0.70
2023-02-09T10:15:36.344Z,0.80
2023-02-09T10:18:14.200Z,0.90
2023-02-09T10:20:52.073Z,1.00
2023-02-09T10:23:30.267Z,1.10
2023-02-09T10:26:04.607Z,1.10
2023-02-09T10:28:39.382Z,1.10
2023-02-09T10:31:23.444Z,1.10
2023-02-09T10:34:03.654Z,1.30
2023-02-09T10:36:37.734Z,1.30
2023-02-09T10:39:17.889Z,1.50
2023-02-09T10:41:52.673Z,1.50
2023-02-09T10:44:28.250Z,1.60
2023-02-09T10:47:14.079Z,1.50
2023-02-09T10:49:47.326Z,1.60
2023-02-09T10:52:21.471Z,1.60
2023-02-09T10:54:57.547Z,1.70
2023-02-09T10:57:32.986Z,1.70
2023-02-09T11:00:23.108Z,1.60
2023-02-09T11:02:57.544Z,1.70
2023-02-09T11:05:33.575Z,1.90
2023-02-09T11:08:34.044Z,2.00
2023-02-09T11:11:09.914Z,2.20
2023-02-09T11:13:43.020Z,2.30
2023-02-09T11:16:37.985Z,2.40
2023-02-09T11:19:15.757Z,2.40
2023-02-09T11:21:59.355Z,2.40
2023-02-09T11:24:52.598Z,2.50
2023-02-09T11:27:36.796Z,2.50
2023-02-09T11:30:18.654Z,2.50
2023-02-09T11:32:54.662Z,2.50
2023-02-09T11:35:30.333Z,2.70
2023-02-09T11:38:05.196Z,2.60
2023-02-09T11:40:39.592Z,2.80
2023-02-09T11:43:18.370Z,2.80
2023-02-09T11:45:51.479Z,2.90
2023-02-09T11:48:26.431Z,2.90
2023-02-09T11:51:04.568Z,2.90
2023-02-09T11:53:42.714Z,2.90
2023-02-09T11:56:16.236Z,3.00
2023-02-09T11:58:53.877Z,3.10
2023-02-09T12:01:31.106Z,3.10
2023-02-09T12:04:08.470Z,3.20
2023-02-09T12:06:44.148Z,3.20
2023-02-09T12:09:27.731Z,3.30
2023-02-09T12:12:07.436Z,3.30
2023-02-09T12:14:52.043Z,3.30
2023-02-09T12:17:29.898Z,3.20
2023-02-09T12:20:05.760Z,3.20
2023-02-09T12:23:00.745Z,3.30
2023-02-09T12:28:44.717Z,3.30
2023-02-09T12:31:24.454Z,3.40
2023-02-09T12:37:28.051Z,3.30
2023-02-09T12:40:27.324Z,3.30
2023-02-09T12:43:30.358Z,3.40
2023-02-09T12:46:27.340Z,3.40
2023-02-09T12:49:28.126Z,3.60
2023-02-09T12:55:21.702Z,3.60
2023-02-09T12:57:55.106Z,3.50
2023-02-09T13:00:45.843Z,3.50
2023-02-09T13:03:24.360Z,3.50
2023-02-09T13:06:00.142Z,3.40
2023-02-09T13:08:39.991Z,3.40
2023-02-09T13:11:24.881Z,3.40
2023-02-09T13:13:58.989Z,3.50
2023-02-09T13:16:57.236Z,3.50
2023-02-09T13:19:54.470Z,3.50
2023-02-09T13:22:33.478Z,3.70
2023-02-09T13:25:17.864Z,3.70
2023-02-09T13:27:51.661Z,3.90
2023-02-09T13:30:31.901Z,4.00
2023-02-09T13:33:08.943Z,4.00
2023-02-09T13:35:44.249Z,3.90
2023-02-09T13:38:21.665Z,3.90
2023-02-09T13:40:56.278Z,4.00
2023-02-09T13:43:31.558Z,3.90
2023-02-09T13:46:04.633Z,3.90
2023-02-09T13:48:38.445Z,3.90
2023-02-09T13:51:20.186Z,3.90
2023-02-09T13:54:02.725Z,3.90
2023-02-09T13:56:35.819Z,3.90
2023-02-09T13:59:07.291Z,3.90
2023-02-09T14:01:42.484Z,3.90
2023-02-09T14:04:17.176Z,3.90
2023-02-09T14:06:51.678Z,3.90
2023-02-09T14:09:26.084Z,4.00
2023-02-09T14:12:01.938Z,4.00
2023-02-09T14:14:55.088Z,4.00
2023-02-09T14:17:29.039Z,4.00
2023-02-09T14:20:01.724Z,3.90
2023-02-09T14:22:53.194Z,3.90
2023-02-09T14:25:26.926Z,3.90
2023-02-09T14:27:59.209Z,3.90
2023-02-09T14:30:34.267Z,4.00
2023-02-09T14:33:06.252Z,3.90
2023-02-09T14:35:40.391Z,4.00
2023-02-09T14:38:51.711Z,4.00
2023-02-09T14:41:29.557Z,4.00
2023-02-09T14:44:03.101Z,3.90
2023-02-09T14:46:50.437Z,4.00
2023-02-09T14:49:23.756Z,3.90
2023-02-09T14:52:04.170Z,3.90
2023-02-09T14:54:38.006Z,3.80
2023-02-09T14:57:13.284Z,3.80
2023-02-09T14:59:45.317Z,3.80
2023-02-09T15:02:19.816Z,3.80
2023-02-09T15:04:51.664Z,3.80
2023-02-09T15:07:26.431Z,3.80
2023-02-09T15:09:57.962Z,3.70
2023-02-09T15:12:30.723Z,3.80
2023-02-09T15:15:03.740Z,3.70
2023-02-09T15:17:35.321Z,3.70
2023-02-09T15:20:09.879Z,3.70
2023-02-09T15:22:44.507Z,3.60
2023-02-09T15:25:17.540Z,3.60
2023-02-09T15:27:52.756Z,3.60
2023-02-09T15:30:26.135Z,3.50
2023-02-09T15:32:57.606Z,3.50
2023-02-09T15:35:31.139Z,3.40
2023-02-09T15:38:03.558Z,3.40
2023-02-09T15:41:05.881Z,3.30
2023-02-09T15:43:57.276Z,3.30
2023-02-09T15:47:04.488Z,3.20
2023-02-09T15:52:20.902Z,2.90
2023-02-09T15:54:53.658Z,2.80
2023-02-09T15:57:27.010Z,2.70
2023-02-09T15:59:58.852Z,2.60
2023-02-09T16:02:30.526Z,2.50
2023-02-09T16:05:04.343Z,2.40
2023-02-09T16:07:37.316Z,2.30
2023-02-09T16:10:16.620Z,2.20
2023-02-09T16:12:48.598Z,2.10
2023-02-09T16:15:20.951Z,2.00
2023-02-09T16:17:52.611Z,1.80
2023-02-09T16:20:25.985Z,1.70
2023-02-09T16:23:11.727Z,1.60
2023-02-09T16:25:34.832Z,1.60
2023-02-09T16:28:14.977Z,1.40
2023-02-09T16:30:52.863Z,1.40
2023-02-09T16:33:26.311Z,1.30
2023-02-09T16:35:59.628Z,1.20
2023-02-09T16:38:31.978Z,1.10
2023-02-09T16:41:03.370Z,1.00
2023-02-09T16:43:42.636Z,0.90
2023-02-09T16:46:15.545Z,0.90
2023-02-09T16:49:26.439Z,0.80
2023-02-09T16:52:02.492Z,0.80
2023-02-09T16:54:37.913Z,0.70
2023-02-09T16:57:30.096Z,0.70
2023-02-09T17:00:02.465Z,0.80
2023-02-09T17:02:39.826Z,0.70
2023-02-09T17:05:23.422Z,0.70
2023-02-09T17:08:09.723Z,0.60
2023-02-09T17:11:11.251Z,0.60
2023-02-09T17:13:45.606Z,0.50
2023-02-09T17:16:24.737Z,0.40
2023-02-09T17:19:04.954Z,0.30
2023-02-09T17:22:19.078Z,0.30
2023-02-09T17:24:54.064Z,0.30
2023-02-09T17:27:25.891Z,0.30
2023-02-09T17:30:11.331Z,0.20
2023-02-09T17:32:46.223Z,0.30
2023-02-09T17:35:47.969Z,0.20
2023-02-09T17:37:57.938Z,0.30
2023-02-09T17:40:29.722Z,0.30
2023-02-09T17:43:02.755Z,0.30
2023-02-09T17:45:53.454Z,0.30
2023-02-09T17:48:30.427Z,0.30
2023-02-09T17:51:13.123Z,0.30
2023-02-09T17:53:50.538Z,0.30
2023-02-09T17:56:19.998Z,0.30
2023-02-09T17:58:51.738Z,0.40
2023-02-09T18:01:27.576Z,0.40
2023-02-09T18:04:01.326Z,0.30
2023-02-09T18:06:37.511Z,0.20
2023-02-09T18:09:12.603Z,0.10
2023-02-09T18:12:01.471Z,0.00
2023-02-09T18:14:34.402Z,-0.10
2023-02-09T18:17:06.022Z,-0.30
2023-02-09T18:19:37.780Z,-0.40
2023-02-09T18:22:13.100Z,-0.50
2023-02-09T18:24:45.754Z,-0.60
2023-02-09T18:27:20.262Z,-0.70
2023-02-09T18:29:51.679Z,-0.70
2023-02-09T18:32:27.166Z,-0.70
2023-02-09T18:35:04.614Z,-0.70
2023-02-09T18:37:38.365Z,-0.70
2023-02-09T18:40:11.760Z,-0.80
2023-02-09T18:43:03.010Z,-0.70
2023-02-09T18:45:35.276Z,-0.70
2023-02-09T18:48:06.950Z,-0.80
2023-02-09T18:50:40.372Z,-0.80
2023-02-09T18:53:15.043Z,-0.70
2023-02-09T18:55:48.559Z,-0.80
2023-02-09T18:58:20.190Z,-0.90
2023-02-09T19:00:54.157Z,-1.00
2023-02-09T19:03:26.573Z,-1.10
2023-02-09T19:05:58.866Z,-1.10
2023-02-09T19:08:30.498Z,-1.00
2023-02-09T19:11:09.474Z,-1.10
2023-02-09T19:13:41.254Z,-1.20
2023-02-09T19:16:13.345Z,-1.20
2023-02-09T19:18:46.660Z,-1.20
2023-02-09T19:21:19.685Z,-1.10
2023-02-09T19:23:51.309Z,-1.00
2023-02-09T19:26:23.398Z,-0.80
2023-02-09T19:28:57.992Z,-0.80
2023-02-09T19:31:31.590Z,-0.80
2023-02-09T19:34:03.499Z,-0.80
2023-02-09T19:36:35.252Z,-0.80
2023-02-09T19:39:07.089Z,-0.90
2023-02-09T19:41:38.651Z,-1.00
2023-02-09T19:44:10.551Z,-1.10
2023-02-09T19:46:45.803Z,-1.10
2023-02-09T19:49:21.281Z,-1.20
2023-02-09T19:51:53.993Z,-1.20
2023-02-09T19:54:36.087Z,-1.20
2023-02-09T19:57:08.747Z,-1.20
2023-02-09T19:59:43.496Z,-1.30
2023-02-09T20:02:21.709Z,-1.30
2023-02-09T20:04:55.110Z,-1.40
2023-02-09T20:07:30.826Z,-1.50
2023-02-09T20:10:04.042Z,-1.50
2023-02-09T20:12:37.881Z,-1.60
2023-02-09T20:15:15.778Z,-1.60
2023-02-09T20:17:49.126Z,-1.60
2023-02-09T20:20:22.250Z,-1.50
2023-02-09T20:22:57.800Z,-1.40
2023-02-09T20:25:31.492Z,-1.30
2023-02-09T20:28:04.768Z,-1.40
2023-02-09T20:30:50.002Z,-1.40
2023-02-09T20:33:24.334Z,-1.40
2023-02-09T20:35:56.944Z,-1.40
2023-02-09T20:38:32.734Z,-1.50
2023-02-09T20:41:06.468Z,-1.60
2023-02-09T20:43:56.752Z,-1.60
2023-02-09T20:46:56.408Z,-1.60
2023-02-09T20:49:31.502Z,-1.60
2023-02-09T20:52:03.893Z,-1.70
2023-02-09T20:54:36.929Z,-1.70
2023-02-09T20:57:16.419Z,-1.70
2023-02-09T20:59:48.103Z,-1.70
2023-02-09T21:02:22.414Z,-1.80
2023-02-09T21:04:56.777Z,-1.80
2023-02-09T21:07:28.297Z,-1.90
2023-02-09T21:10:00.455Z,-1.90
2023-02-09T21:12:32.890Z,-2.00
2023-02-09T21:15:04.991Z,-1.90
2023-02-09T21:17:36.683Z,-1.90
2023-02-09T21:20:10.439Z,-1.90
2023-02-09T21:22:42.347Z,-1.90
2023-02-09T21:25:15.204Z,-1.90
2023-02-09T21:27:47.121Z,-1.90
2023-02-09T21:30:21.450Z,-2.00
2023-02-09T21:32:58.378Z,-1.90
2023-02-09T21:35:30.607Z,-1.40
2023-02-09T21:38:03.763Z,-1.20
2023-02-09T21:40:38.026Z,-1.20
2023-02-09T21:43:20.731Z,-1.20
2023-02-09T21:45:53.553Z,-1.20
2023-02-09T21:48:25.562Z,-1.20
2023-02-09T21:50:57.780Z,-1.20
2023-02-09T21:53:29.799Z,-1.30
2023-02-09T21:56:01.924Z,-1.40
2023-02-09T21:58:34.045Z,-1.40
2023-02-09T22:01:10.004Z,-1.50
2023-02-09T22:03:43.583Z,-1.50
2023-02-09T22:06:15.174Z,-1.50
2023-02-09T22:08:46.811Z,-1.60
2023-02-09T22:11:18.537Z,-1.70
2023-02-09T22:13:51.132Z,-1.80
2023-02-09T22:16:24.370Z,-1.80
2023-02-09T22:18:55.916Z,-1.80
2023-02-09T22:21:28.778Z,-1.80
2023-02-09T22:24:02.097Z,-1.80
2023-02-09T22:26:35.001Z,-1.80
2023-02-09T22:29:07.386Z,-1.90
2023-02-09T22:31:38.866Z,-1.90
2023-02-09T22:34:10.688Z,-1.90
2023-02-09T22:36:44.214Z,-2.00
2023-02-09T22:39:16.170Z,-2.10
2023-02-09T22:41:48.949Z,-2.20
2023-02-09T22:47:09.136Z,-2.30
2023-02-09T22:49:41.530Z,-2.40
2023-02-09T22:52:13.600Z,-2.50
2023-02-09T22:54:45.540Z,-2.50
2023-02-09T22:57:17.964Z,-2.60
2023-02-09T22:59:49.960Z,-2.60
2023-02-09T23:02:21.845Z,-2.60
2023-02-09T23:04:53.239Z,-2.50
2023-02-09T23:07:25.604Z,-2.40
2023-02-09T23:09:57.953Z,-2.50
2023-02-09T23:12:31.437Z,-2.50
2023-02-09T23:15:03.020Z,-2.50
2023-02-09T23:17:35.018Z,-2.50
2023-02-09T23:20:10.863Z,-2.40
2023-02-09T23:22:45.672Z,-2.30
2023-02-09T23:25:17.545Z,-2.30
2023-02-09T23:27:50.206Z,-2.30
2023-02-09T23:30:22.048Z,-2.40
2023-02-09T23:32:53.618Z,-2.40
2023-02-09T23:35:24.987Z,-2.40
2023-02-09T23:37:56.538Z,-2.40
2023-02-09T23:40:27.949Z,-2.30
2023-02-09T23:42:59.481Z,-2.30
2023-02-09T23:45:31.073Z,-2.20
2023-02-09T23:48:03.294Z,-2.10
2023-02-09T23:50:36.918Z,-2.10
2023-02-09T23:53:09.756Z,-2.00
2023-02-09T23:55:41.386Z,-2.10
2023-02-09T23:58:12.963Z,-2.30
